sensor_id;sensor_type;location;lat;lon;timestamp;temperature;humidity
18218;DHT22;9234;49.344;11.120;2022-11-06T00:00:36;5.70;99.90
18218;DHT22;9234;49.344;11.120;2022-11-06T00:03:04;5.60;99.90
18218;DHT22;9234;49.344;11.120;2022-11-06T00:05:33;5.60;99.90
18218;DHT22;9234;49.344;11.120;2022-11-06T00:08:29;5.60;99.90
18218;DHT22;9234;49.344;11.120;2022-11-06T00:10:59;5.50;99.90
18218;DHT22;9234;49.344;11.120;2022-11-06T00:13:28;5.40;99.90
18218;DHT22;9234;49.344;11.120;2022-11-06T00:16:01;5.40;99.90
18218;DHT22;9234;49.344;11.120;2022-11-06T00:18:30;5.30;99.90
18218;DHT22;9234;49.344;11.120;2022-11-06T00:21:01;5.30;99.90
18218;DHT22;9234;49.344;11.120;2022-11-06T00:23:35;5.20;99.90
18218;DHT22;9234;49.344;11.120;2022-11-06T00:26:07;5.20;99.90
18218;DHT22;9234;49.344;11.120;2022-11-06T00:28:36;5.10;99.90
18218;DHT22;9234;49.344;11.120;2022-11-06T00:31:06;5.10;99.90
18218;DHT22;9234;49.344;11.120;2022-11-06T00:33:36;5.00;99.90
18218;DHT22;9234;49.344;11.120;2022-11-06T00:36:05;5.00;99.90
18218;DHT22;9234;49.344;11.120;2022-11-06T00:38:36;4.90;99.90
18218;DHT22;9234;49.344;11.120;2022-11-06T00:41:10;4.80;99.90
18218;DHT22;9234;49.344;11.120;2022-11-06T00:43:47;4.80;99.90
18218;DHT22;9234;49.344;11.120;2022-11-06T00:46:18;4.70;99.90
18218;DHT22;9234;49.344;11.120;2022-11-06T00:48:46;4.70;99.90
18218;DHT22;9234;49.344;11.120;2022-11-06T00:51:17;4.60;99.90
18218;DHT22;9234;49.344;11.120;2022-11-06T00:53:53;4.60;99.90
18218;DHT22;9234;49.344;11.120;2022-11-06T00:56:22;4.50;99.90
18218;DHT22;9234;49.344;11.120;2022-11-06T00:58:51;4.50;99.90
18218;DHT22;9234;49.344;11.120;2022-11-06T01:01:20;4.50;99.90
18218;DHT22;9234;49.344;11.120;2022-11-06T01:03:52;4.50;99.90
18218;DHT22;9234;49.344;11.120;2022-11-06T01:06:24;4.40;99.90
18218;DHT22;9234;49.344;11.120;2022-11-06T01:08:55;4.40;99.90
18218;DHT22;9234;49.344;11.120;2022-11-06T01:11:25;4.40;99.90
18218;DHT22;9234;49.344;11.120;2022-11-06T01:14:17;4.30;99.90
18218;DHT22;9234;49.344;11.120;2022-11-06T01:16:46;4.30;99.90
18218;DHT22;9234;49.344;11.120;2022-11-06T01:19:17;4.30;99.90
18218;DHT22;9234;49.344;11.120;2022-11-06T01:21:48;4.30;99.90
18218;DHT22;9234;49.344;11.120;2022-11-06T01:24:21;4.20;99.90
18218;DHT22;9234;49.344;11.120;2022-11-06T01:26:51;4.20;99.90
18218;DHT22;9234;49.344;11.120;2022-11-06T01:29:39;4.10;99.90
18218;DHT22;9234;49.344;11.120;2022-11-06T01:32:07;4.10;99.90
18218;DHT22;9234;49.344;11.120;2022-11-06T01:34:36;4.00;99.90
18218;DHT22;9234;49.344;11.120;2022-11-06T01:37:04;4.00;99.90
18218;DHT22;9234;49.344;11.120;2022-11-06T01:39:41;4.00;99.90
18218;DHT22;9234;49.344;11.120;2022-11-06T01:42:10;3.90;99.90
18218;DHT22;9234;49.344;11.120;2022-11-06T01:47:47;3.80;99.90
18218;DHT22;9234;49.344;11.120;2022-11-06T01:50:16;3.80;99.90
18218;DHT22;9234;49.344;11.120;2022-11-06T01:52:47;3.70;99.90
18218;DHT22;9234;49.344;11.120;2022-11-06T01:55:22;3.70;99.90
18218;DHT22;9234;49.344;11.120;2022-11-06T01:57:56;3.70;99.90
18218;DHT22;9234;49.344;11.120;2022-11-06T02:00:28;3.70;99.90
18218;DHT22;9234;49.344;11.120;2022-11-06T02:02:58;3.60;99.90
18218;DHT22;9234;49.344;11.120;2022-11-06T02:05:28;3.60;99.90
18218;DHT22;9234;49.344;11.120;2022-11-06T02:07:58;3.60;99.90
18218;DHT22;9234;49.344;11.120;2022-11-06T02:10:29;3.60;99.90
18218;DHT22;9234;49.344;11.120;2022-11-06T02:13:09;3.60;99.90
18218;DHT22;9234;49.344;11.120;2022-11-06T02:15:47;3.60;99.90
18218;DHT22;9234;49.344;11.120;2022-11-06T02:18:28;3.60;99.90
18218;DHT22;9234;49.344;11.120;2022-11-06T02:27:45;3.50;99.90
18218;DHT22;9234;49.344;11.120;2022-11-06T02:30:16;3.50;99.90
18218;DHT22;9234;49.344;11.120;2022-11-06T02:32:49;3.50;99.90
18218;DHT22;9234;49.344;11.120;2022-11-06T02:35:27;3.50;99.90
18218;DHT22;9234;49.344;11.120;2022-11-06T02:38:00;3.40;99.90
18218;DHT22;9234;49.344;11.120;2022-11-06T02:40:35;3.40;99.90
18218;DHT22;9234;49.344;11.120;2022-11-06T02:43:08;3.40;99.90
18218;DHT22;9234;49.344;11.120;2022-11-06T02:45:41;3.40;99.90
18218;DHT22;9234;49.344;11.120;2022-11-06T02:48:16;3.30;99.90
18218;DHT22;9234;49.344;11.120;2022-11-06T02:50:49;3.30;99.90
18218;DHT22;9234;49.344;11.120;2022-11-06T02:53:24;3.30;99.90
18218;DHT22;9234;49.344;11.120;2022-11-06T02:55:55;3.30;99.90
18218;DHT22;9234;49.344;11.120;2022-11-06T02:58:31;3.20;99.90
18218;DHT22;9234;49.344;11.120;2022-11-06T03:01:09;3.20;99.90
18218;DHT22;9234;49.344;11.120;2022-11-06T03:03:43;3.20;99.90
18218;DHT22;9234;49.344;11.120;2022-11-06T03:06:21;3.10;99.90
18218;DHT22;9234;49.344;11.120;2022-11-06T03:09:00;3.10;99.90
18218;DHT22;9234;49.344;11.120;2022-11-06T03:11:34;3.10;99.90
18218;DHT22;9234;49.344;11.120;2022-11-06T03:14:11;3.10;99.90
18218;DHT22;9234;49.344;11.120;2022-11-06T03:16:51;3.00;99.90
18218;DHT22;9234;49.344;11.120;2022-11-06T03:19:26;3.00;99.90
18218;DHT22;9234;49.344;11.120;2022-11-06T03:22:02;2.90;99.90
18218;DHT22;9234;49.344;11.120;2022-11-06T03:24:41;2.90;99.90
18218;DHT22;9234;49.344;11.120;2022-11-06T03:27:16;2.80;99.90
18218;DHT22;9234;49.344;11.120;2022-11-06T03:29:50;2.80;99.90
18218;DHT22;9234;49.344;11.120;2022-11-06T03:32:27;2.80;99.90
18218;DHT22;9234;49.344;11.120;2022-11-06T03:35:02;2.70;99.90
18218;DHT22;9234;49.344;11.120;2022-11-06T03:37:39;2.70;99.90
18218;DHT22;9234;49.344;11.120;2022-11-06T03:40:15;2.70;99.90
18218;DHT22;9234;49.344;11.120;2022-11-06T03:42:48;2.60;99.90
18218;DHT22;9234;49.344;11.120;2022-11-06T03:45:22;2.60;99.90
18218;DHT22;9234;49.344;11.120;2022-11-06T03:47:56;2.60;99.90
18218;DHT22;9234;49.344;11.120;2022-11-06T03:50:32;2.60;99.90
18218;DHT22;9234;49.344;11.120;2022-11-06T03:53:07;2.60;99.90
18218;DHT22;9234;49.344;11.120;2022-11-06T03:55:44;2.50;99.90
18218;DHT22;9234;49.344;11.120;2022-11-06T03:58:18;2.60;99.90
18218;DHT22;9234;49.344;11.120;2022-11-06T04:00:52;2.50;99.90
18218;DHT22;9234;49.344;11.120;2022-11-06T04:03:27;2.50;99.90
18218;DHT22;9234;49.344;11.120;2022-11-06T04:06:02;2.50;99.90
18218;DHT22;9234;49.344;11.120;2022-11-06T04:08:40;2.50;99.90
18218;DHT22;9234;49.344;11.120;2022-11-06T04:11:28;2.50;99.90
18218;DHT22;9234;49.344;11.120;2022-11-06T04:14:17;2.40;99.90
18218;DHT22;9234;49.344;11.120;2022-11-06T04:16:51;2.40;99.90
18218;DHT22;9234;49.344;11.120;2022-11-06T04:19:22;2.40;99.90
18218;DHT22;9234;49.344;11.120;2022-11-06T04:22:14;2.40;99.90
18218;DHT22;9234;49.344;11.120;2022-11-06T04:24:58;2.40;99.90
18218;DHT22;9234;49.344;11.120;2022-11-06T04:28:01;2.30;99.90
18218;DHT22;9234;49.344;11.120;2022-11-06T04:30:43;2.30;99.90
18218;DHT22;9234;49.344;11.120;2022-11-06T04:33:24;2.30;99.90
18218;DHT22;9234;49.344;11.120;2022-11-06T04:36:02;2.30;99.90
18218;DHT22;9234;49.344;11.120;2022-11-06T04:38:41;2.40;99.90
18218;DHT22;9234;49.344;11.120;2022-11-06T04:41:18;2.40;99.90
18218;DHT22;9234;49.344;11.120;2022-11-06T04:44:03;2.40;99.90
18218;DHT22;9234;49.344;11.120;2022-11-06T04:46:39;2.50;99.90
18218;DHT22;9234;49.344;11.120;2022-11-06T04:49:13;2.50;99.90
18218;DHT22;9234;49.344;11.120;2022-11-06T04:51:43;2.50;99.90
18218;DHT22;9234;49.344;11.120;2022-11-06T04:54:13;2.50;99.90
18218;DHT22;9234;49.344;11.120;2022-11-06T04:56:42;2.50;99.90
18218;DHT22;9234;49.344;11.120;2022-11-06T04:59:14;2.50;99.90
18218;DHT22;9234;49.344;11.120;2022-11-06T05:01:44;2.50;99.90
18218;DHT22;9234;49.344;11.120;2022-11-06T05:04:14;2.50;99.90
18218;DHT22;9234;49.344;11.120;2022-11-06T05:06:42;2.50;99.90
18218;DHT22;9234;49.344;11.120;2022-11-06T05:09:10;2.40;99.90
18218;DHT22;9234;49.344;11.120;2022-11-06T05:11:39;2.40;99.90
18218;DHT22;9234;49.344;11.120;2022-11-06T05:14:07;2.40;99.90
18218;DHT22;9234;49.344;11.120;2022-11-06T05:16:35;2.40;99.90
18218;DHT22;9234;49.344;11.120;2022-11-06T05:19:03;2.40;99.90
18218;DHT22;9234;49.344;11.120;2022-11-06T05:21:33;2.40;99.90
18218;DHT22;9234;49.344;11.120;2022-11-06T05:24:18;2.40;99.90
18218;DHT22;9234;49.344;11.120;2022-11-06T05:26:47;2.40;99.90
18218;DHT22;9234;49.344;11.120;2022-11-06T05:29:21;2.50;99.90
18218;DHT22;9234;49.344;11.120;2022-11-06T05:31:50;2.50;99.90
18218;DHT22;9234;49.344;11.120;2022-11-06T05:34:18;2.50;99.90
18218;DHT22;9234;49.344;11.120;2022-11-06T05:36:47;2.50;99.90
18218;DHT22;9234;49.344;11.120;2022-11-06T05:39:15;2.50;99.90
18218;DHT22;9234;49.344;11.120;2022-11-06T05:41:44;2.50;99.90
18218;DHT22;9234;49.344;11.120;2022-11-06T05:44:12;2.50;99.90
18218;DHT22;9234;49.344;11.120;2022-11-06T05:46:40;2.50;99.90
18218;DHT22;9234;49.344;11.120;2022-11-06T05:49:15;2.50;99.90
18218;DHT22;9234;49.344;11.120;2022-11-06T05:51:44;2.50;99.90
18218;DHT22;9234;49.344;11.120;2022-11-06T05:54:13;2.50;99.90
18218;DHT22;9234;49.344;11.120;2022-11-06T05:56:42;2.50;99.90
18218;DHT22;9234;49.344;11.120;2022-11-06T05:59:10;2.50;99.90
18218;DHT22;9234;49.344;11.120;2022-11-06T06:01:38;2.50;99.90
18218;DHT22;9234;49.344;11.120;2022-11-06T06:04:07;2.60;99.90
18218;DHT22;9234;49.344;11.120;2022-11-06T06:06:35;2.60;99.90
18218;DHT22;9234;49.344;11.120;2022-11-06T06:09:04;2.60;99.90
18218;DHT22;9234;49.344;11.120;2022-11-06T06:11:33;2.60;99.90
18218;DHT22;9234;49.344;11.120;2022-11-06T06:14:02;2.70;99.90
18218;DHT22;9234;49.344;11.120;2022-11-06T06:16:30;2.70;99.90
18218;DHT22;9234;49.344;11.120;2022-11-06T06:18:58;2.70;99.90
18218;DHT22;9234;49.344;11.120;2022-11-06T06:21:26;2.70;99.90
18218;DHT22;9234;49.344;11.120;2022-11-06T06:23:54;2.70;99.90
18218;DHT22;9234;49.344;11.120;2022-11-06T06:26:22;2.80;99.90
18218;DHT22;9234;49.344;11.120;2022-11-06T06:28:52;2.80;99.90
18218;DHT22;9234;49.344;11.120;2022-11-06T06:31:20;2.80;99.90
18218;DHT22;9234;49.344;11.120;2022-11-06T06:33:49;2.90;99.90
18218;DHT22;9234;49.344;11.120;2022-11-06T06:36:17;2.90;99.90
18218;DHT22;9234;49.344;11.120;2022-11-06T06:38:45;2.90;99.90
18218;DHT22;9234;49.344;11.120;2022-11-06T06:41:14;3.00;99.90
18218;DHT22;9234;49.344;11.120;2022-11-06T06:43:42;3.00;99.90
18218;DHT22;9234;49.344;11.120;2022-11-06T06:46:12;3.10;99.90
18218;DHT22;9234;49.344;11.120;2022-11-06T06:48:40;3.10;99.90
18218;DHT22;9234;49.344;11.120;2022-11-06T06:51:08;3.20;99.90
18218;DHT22;9234;49.344;11.120;2022-11-06T06:53:36;3.20;99.90
18218;DHT22;9234;49.344;11.120;2022-11-06T06:56:05;3.20;99.90
18218;DHT22;9234;49.344;11.120;2022-11-06T06:58:34;3.30;99.90
18218;DHT22;9234;49.344;11.120;2022-11-06T07:01:03;3.40;99.90
18218;DHT22;9234;49.344;11.120;2022-11-06T07:03:37;3.50;99.90
18218;DHT22;9234;49.344;11.120;2022-11-06T07:06:06;3.50;99.90
18218;DHT22;9234;49.344;11.120;2022-11-06T07:08:34;3.60;99.90
18218;DHT22;9234;49.344;11.120;2022-11-06T07:11:04;3.60;99.90
18218;DHT22;9234;49.344;11.120;2022-11-06T07:13:34;3.70;99.90
18218;DHT22;9234;49.344;11.120;2022-11-06T07:16:04;3.70;99.90
18218;DHT22;9234;49.344;11.120;2022-11-06T07:18:33;3.80;99.90
18218;DHT22;9234;49.344;11.120;2022-11-06T07:21:05;3.90;99.90
18218;DHT22;9234;49.344;11.120;2022-11-06T07:23:35;3.90;99.90
18218;DHT22;9234;49.344;11.120;2022-11-06T07:26:04;4.00;99.90
18218;DHT22;9234;49.344;11.120;2022-11-06T07:28:33;4.10;99.90
18218;DHT22;9234;49.344;11.120;2022-11-06T07:31:03;4.10;99.90
18218;DHT22;9234;49.344;11.120;2022-11-06T07:33:33;4.20;99.90
18218;DHT22;9234;49.344;11.120;2022-11-06T07:36:05;4.30;99.90
18218;DHT22;9234;49.344;11.120;2022-11-06T07:38:35;4.40;99.90
18218;DHT22;9234;49.344;11.120;2022-11-06T07:41:05;4.40;99.90
18218;DHT22;9234;49.344;11.120;2022-11-06T07:43:35;4.50;99.90
18218;DHT22;9234;49.344;11.120;2022-11-06T07:46:06;4.60;99.90
18218;DHT22;9234;49.344;11.120;2022-11-06T07:48:36;4.70;99.90
18218;DHT22;9234;49.344;11.120;2022-11-06T07:51:08;4.80;99.90
18218;DHT22;9234;49.344;11.120;2022-11-06T07:53:38;4.90;99.90
18218;DHT22;9234;49.344;11.120;2022-11-06T07:56:07;5.00;99.90
18218;DHT22;9234;49.344;11.120;2022-11-06T07:58:35;5.10;99.90
18218;DHT22;9234;49.344;11.120;2022-11-06T08:01:04;5.10;99.90
18218;DHT22;9234;49.344;11.120;2022-11-06T08:03:33;5.20;99.90
18218;DHT22;9234;49.344;11.120;2022-11-06T08:06:02;5.30;99.90
18218;DHT22;9234;49.344;11.120;2022-11-06T08:08:33;5.40;99.90
18218;DHT22;9234;49.344;11.120;2022-11-06T08:11:01;5.50;99.90
18218;DHT22;9234;49.344;11.120;2022-11-06T08:13:30;5.60;99.90
18218;DHT22;9234;49.344;11.120;2022-11-06T08:16:02;5.70;99.90
18218;DHT22;9234;49.344;11.120;2022-11-06T08:18:32;5.80;99.90
18218;DHT22;9234;49.344;11.120;2022-11-06T08:21:00;5.90;99.90
18218;DHT22;9234;49.344;11.120;2022-11-06T08:23:29;6.00;99.90
18218;DHT22;9234;49.344;11.120;2022-11-06T08:26:00;6.10;99.90
18218;DHT22;9234;49.344;11.120;2022-11-06T08:28:30;6.20;99.90
18218;DHT22;9234;49.344;11.120;2022-11-06T08:31:02;6.30;99.90
18218;DHT22;9234;49.344;11.120;2022-11-06T08:33:31;6.30;99.90
18218;DHT22;9234;49.344;11.120;2022-11-06T08:36:01;6.50;99.90
18218;DHT22;9234;49.344;11.120;2022-11-06T08:38:30;6.50;99.90
18218;DHT22;9234;49.344;11.120;2022-11-06T08:41:03;6.60;99.90
18218;DHT22;9234;49.344;11.120;2022-11-06T08:43:32;6.70;99.90
18218;DHT22;9234;49.344;11.120;2022-11-06T08:46:01;6.80;99.90
18218;DHT22;9234;49.344;11.120;2022-11-06T08:48:31;6.80;99.90
18218;DHT22;9234;49.344;11.120;2022-11-06T08:50:59;6.90;99.90
18218;DHT22;9234;49.344;11.120;2022-11-06T08:53:28;7.00;99.90
18218;DHT22;9234;49.344;11.120;2022-11-06T08:55:56;7.20;99.90
18218;DHT22;9234;49.344;11.120;2022-11-06T08:58:26;7.20;99.90
18218;DHT22;9234;49.344;11.120;2022-11-06T09:00:54;7.30;99.90
18218;DHT22;9234;49.344;11.120;2022-11-06T09:03:22;7.30;99.90
18218;DHT22;9234;49.344;11.120;2022-11-06T09:05:50;7.40;99.90
18218;DHT22;9234;49.344;11.120;2022-11-06T09:08:18;7.50;99.90
18218;DHT22;9234;49.344;11.120;2022-11-06T09:10:46;7.50;99.90
18218;DHT22;9234;49.344;11.120;2022-11-06T09:13:17;7.60;99.90
18218;DHT22;9234;49.344;11.120;2022-11-06T09:15:47;7.60;99.90
18218;DHT22;9234;49.344;11.120;2022-11-06T09:18:15;7.70;99.90
18218;DHT22;9234;49.344;11.120;2022-11-06T09:20:44;7.70;99.90
18218;DHT22;9234;49.344;11.120;2022-11-06T09:23:12;7.70;99.90
18218;DHT22;9234;49.344;11.120;2022-11-06T09:25:40;7.80;99.90
18218;DHT22;9234;49.344;11.120;2022-11-06T09:28:09;7.90;99.90
18218;DHT22;9234;49.344;11.120;2022-11-06T09:30:37;7.90;99.90
18218;DHT22;9234;49.344;11.120;2022-11-06T09:33:06;7.90;99.90
18218;DHT22;9234;49.344;11.120;2022-11-06T09:35:40;8.00;99.90
18218;DHT22;9234;49.344;11.120;2022-11-06T09:38:10;8.00;99.90
18218;DHT22;9234;49.344;11.120;2022-11-06T09:40:45;8.00;99.90
18218;DHT22;9234;49.344;11.120;2022-11-06T09:43:26;8.00;99.90
18218;DHT22;9234;49.344;11.120;2022-11-06T09:46:25;8.00;99.90
18218;DHT22;9234;49.344;11.120;2022-11-06T09:49:02;8.00;99.90
18218;DHT22;9234;49.344;11.120;2022-11-06T09:51:40;8.00;99.90
18218;DHT22;9234;49.344;11.120;2022-11-06T09:54:21;8.00;99.90
18218;DHT22;9234;49.344;11.120;2022-11-06T09:56:57;8.10;99.90
18218;DHT22;9234;49.344;11.120;2022-11-06T09:59:31;8.10;99.90
18218;DHT22;9234;49.344;11.120;2022-11-06T10:02:15;8.20;99.90
18218;DHT22;9234;49.344;11.120;2022-11-06T10:04:54;8.20;99.90
18218;DHT22;9234;49.344;11.120;2022-11-06T10:07:32;8.20;99.90
18218;DHT22;9234;49.344;11.120;2022-11-06T10:10:03;8.20;99.90
18218;DHT22;9234;49.344;11.120;2022-11-06T10:12:44;8.30;99.90
18218;DHT22;9234;49.344;11.120;2022-11-06T10:15:26;8.30;99.90
18218;DHT22;9234;49.344;11.120;2022-11-06T10:18:06;8.30;99.90
18218;DHT22;9234;49.344;11.120;2022-11-06T10:20:45;8.40;99.90
18218;DHT22;9234;49.344;11.120;2022-11-06T10:23:26;8.40;99.90
18218;DHT22;9234;49.344;11.120;2022-11-06T10:26:08;8.40;99.90
18218;DHT22;9234;49.344;11.120;2022-11-06T10:28:59;8.40;99.90
18218;DHT22;9234;49.344;11.120;2022-11-06T10:31:55;8.50;99.90
18218;DHT22;9234;49.344;11.120;2022-11-06T10:34:38;8.50;99.90
18218;DHT22;9234;49.344;11.120;2022-11-06T10:37:14;8.50;99.90
18218;DHT22;9234;49.344;11.120;2022-11-06T10:39:47;8.50;99.90
18218;DHT22;9234;49.344;11.120;2022-11-06T10:42:18;8.50;99.90
18218;DHT22;9234;49.344;11.120;2022-11-06T10:44:52;8.40;99.90
18218;DHT22;9234;49.344;11.120;2022-11-06T10:47:28;8.40;99.90
18218;DHT22;9234;49.344;11.120;2022-11-06T10:50:01;8.40;99.90
18218;DHT22;9234;49.344;11.120;2022-11-06T10:52:43;8.40;99.90
18218;DHT22;9234;49.344;11.120;2022-11-06T10:55:44;8.40;99.90
18218;DHT22;9234;49.344;11.120;2022-11-06T10:58:26;8.50;99.90
18218;DHT22;9234;49.344;11.120;2022-11-06T11:00:59;8.50;99.90
18218;DHT22;9234;49.344;11.120;2022-11-06T11:03:30;8.50;99.90
18218;DHT22;9234;49.344;11.120;2022-11-06T11:06:02;8.50;99.90
18218;DHT22;9234;49.344;11.120;2022-11-06T11:08:34;8.60;99.90
18218;DHT22;9234;49.344;11.120;2022-11-06T11:11:18;8.60;99.90
18218;DHT22;9234;49.344;11.120;2022-11-06T11:14:10;8.60;99.90
18218;DHT22;9234;49.344;11.120;2022-11-06T11:16:43;8.70;99.90
18218;DHT22;9234;49.344;11.120;2022-11-06T11:19:23;8.80;99.90
18218;DHT22;9234;49.344;11.120;2022-11-06T11:22:02;8.80;99.90
18218;DHT22;9234;49.344;11.120;2022-11-06T11:24:33;8.80;99.90
18218;DHT22;9234;49.344;11.120;2022-11-06T11:27:03;8.90;99.90
18218;DHT22;9234;49.344;11.120;2022-11-06T11:29:44;9.00;99.90
18218;DHT22;9234;49.344;11.120;2022-11-06T11:32:16;9.00;99.90
18218;DHT22;9234;49.344;11.120;2022-11-06T11:34:48;9.10;99.90
18218;DHT22;9234;49.344;11.120;2022-11-06T11:37:25;9.20;99.90
18218;DHT22;9234;49.344;11.120;2022-11-06T11:40:17;9.20;99.90
18218;DHT22;9234;49.344;11.120;2022-11-06T11:42:48;9.30;99.90
18218;DHT22;9234;49.344;11.120;2022-11-06T11:45:19;9.40;99.90
18218;DHT22;9234;49.344;11.120;2022-11-06T11:47:49;9.40;99.90
18218;DHT22;9234;49.344;11.120;2022-11-06T11:50:29;9.40;99.90
18218;DHT22;9234;49.344;11.120;2022-11-06T11:53:03;9.50;99.90
18218;DHT22;9234;49.344;11.120;2022-11-06T11:55:39;9.50;99.90
18218;DHT22;9234;49.344;11.120;2022-11-06T11:58:18;9.50;99.90
18218;DHT22;9234;49.344;11.120;2022-11-06T12:00:53;9.50;99.90
18218;DHT22;9234;49.344;11.120;2022-11-06T12:03:26;9.50;99.90
18218;DHT22;9234;49.344;11.120;2022-11-06T12:06:04;9.50;99.90
18218;DHT22;9234;49.344;11.120;2022-11-06T12:08:37;9.50;99.90
18218;DHT22;9234;49.344;11.120;2022-11-06T12:11:12;9.50;99.90
18218;DHT22;9234;49.344;11.120;2022-11-06T12:13:43;9.50;99.90
18218;DHT22;9234;49.344;11.120;2022-11-06T12:16:15;9.50;99.90
18218;DHT22;9234;49.344;11.120;2022-11-06T12:18:48;9.50;99.90
18218;DHT22;9234;49.344;11.120;2022-11-06T12:21:28;9.60;99.90
18218;DHT22;9234;49.344;11.120;2022-11-06T12:24:03;9.60;99.90
18218;DHT22;9234;49.344;11.120;2022-11-06T12:26:43;9.70;99.90
18218;DHT22;9234;49.344;11.120;2022-11-06T12:29:15;9.70;99.90
18218;DHT22;9234;49.344;11.120;2022-11-06T12:31:52;9.80;99.90
18218;DHT22;9234;49.344;11.120;2022-11-06T12:34:32;9.80;99.90
18218;DHT22;9234;49.344;11.120;2022-11-06T12:37:12;9.90;99.90
18218;DHT22;9234;49.344;11.120;2022-11-06T12:39:53;9.90;99.90
18218;DHT22;9234;49.344;11.120;2022-11-06T12:42:30;10.00;99.90
18218;DHT22;9234;49.344;11.120;2022-11-06T12:45:00;9.90;99.90
18218;DHT22;9234;49.344;11.120;2022-11-06T12:47:41;9.90;99.90
18218;DHT22;9234;49.344;11.120;2022-11-06T12:50:24;9.80;99.90
18218;DHT22;9234;49.344;11.120;2022-11-06T12:53:09;9.80;99.90
18218;DHT22;9234;49.344;11.120;2022-11-06T12:55:50;9.80;99.90
18218;DHT22;9234;49.344;11.120;2022-11-06T12:58:46;9.80;99.90
18218;DHT22;9234;49.344;11.120;2022-11-06T13:01:36;9.80;99.90
18218;DHT22;9234;49.344;11.120;2022-11-06T13:04:35;9.70;99.90
18218;DHT22;9234;49.344;11.120;2022-11-06T13:07:33;9.70;99.90
18218;DHT22;9234;49.344;11.120;2022-11-06T13:10:25;9.70;99.90
18218;DHT22;9234;49.344;11.120;2022-11-06T13:13:18;9.70;99.90
18218;DHT22;9234;49.344;11.120;2022-11-06T13:16:01;9.60;99.90
18218;DHT22;9234;49.344;11.120;2022-11-06T13:18:41;9.60;99.90
18218;DHT22;9234;49.344;11.120;2022-11-06T13:21:27;9.60;99.90
18218;DHT22;9234;49.344;11.120;2022-11-06T13:24:02;9.60;99.90
18218;DHT22;9234;49.344;11.120;2022-11-06T13:26:40;9.50;99.90
18218;DHT22;9234;49.344;11.120;2022-11-06T13:29:15;9.50;99.90
18218;DHT22;9234;49.344;11.120;2022-11-06T13:31:49;9.60;99.90
18218;DHT22;9234;49.344;11.120;2022-11-06T13:34:23;9.60;99.90
18218;DHT22;9234;49.344;11.120;2022-11-06T13:36:56;9.60;99.90
18218;DHT22;9234;49.344;11.120;2022-11-06T13:39:30;9.60;99.90
18218;DHT22;9234;49.344;11.120;2022-11-06T13:42:01;9.60;99.90
18218;DHT22;9234;49.344;11.120;2022-11-06T13:44:44;9.50;99.90
18218;DHT22;9234;49.344;11.120;2022-11-06T13:47:16;9.50;99.90
18218;DHT22;9234;49.344;11.120;2022-11-06T13:49:58;9.50;99.90
18218;DHT22;9234;49.344;11.120;2022-11-06T13:52:37;9.50;99.90
18218;DHT22;9234;49.344;11.120;2022-11-06T13:55:16;9.50;99.90
18218;DHT22;9234;49.344;11.120;2022-11-06T13:58:13;9.50;99.90
18218;DHT22;9234;49.344;11.120;2022-11-06T14:01:00;9.40;99.90
18218;DHT22;9234;49.344;11.120;2022-11-06T14:04:00;9.40;99.90
18218;DHT22;9234;49.344;11.120;2022-11-06T14:06:41;9.40;99.90
18218;DHT22;9234;49.344;11.120;2022-11-06T14:09:17;9.40;99.90
18218;DHT22;9234;49.344;11.120;2022-11-06T14:11:52;9.50;99.90
18218;DHT22;9234;49.344;11.120;2022-11-06T14:14:24;9.60;99.90
18218;DHT22;9234;49.344;11.120;2022-11-06T14:17:12;9.60;99.90
18218;DHT22;9234;49.344;11.120;2022-11-06T14:20:05;9.70;99.90
18218;DHT22;9234;49.344;11.120;2022-11-06T14:22:54;9.70;99.90
18218;DHT22;9234;49.344;11.120;2022-11-06T14:25:57;9.80;99.90
18218;DHT22;9234;49.344;11.120;2022-11-06T14:28:31;9.80;99.90
18218;DHT22;9234;49.344;11.120;2022-11-06T14:31:00;9.80;99.90
18218;DHT22;9234;49.344;11.120;2022-11-06T14:33:59;9.80;99.90
18218;DHT22;9234;49.344;11.120;2022-11-06T14:36:34;9.70;99.90
18218;DHT22;9234;49.344;11.120;2022-11-06T14:39:09;9.60;99.90
18218;DHT22;9234;49.344;11.120;2022-11-06T14:41:57;9.60;99.90
18218;DHT22;9234;49.344;11.120;2022-11-06T14:44:45;9.50;99.90
18218;DHT22;9234;49.344;11.120;2022-11-06T14:47:32;9.50;99.90
18218;DHT22;9234;49.344;11.120;2022-11-06T14:50:06;9.40;99.90
18218;DHT22;9234;49.344;11.120;2022-11-06T14:52:52;9.40;99.90
18218;DHT22;9234;49.344;11.120;2022-11-06T14:55:26;9.40;99.90
18218;DHT22;9234;49.344;11.120;2022-11-06T14:58:10;9.30;99.90
18218;DHT22;9234;49.344;11.120;2022-11-06T15:00:47;9.30;99.90
18218;DHT22;9234;49.344;11.120;2022-11-06T15:03:22;9.20;99.90
18218;DHT22;9234;49.344;11.120;2022-11-06T15:05:59;9.20;99.90
18218;DHT22;9234;49.344;11.120;2022-11-06T15:08:55;9.10;99.90
18218;DHT22;9234;49.344;11.120;2022-11-06T15:11:47;9.10;99.90
18218;DHT22;9234;49.344;11.120;2022-11-06T15:15:01;9.00;99.90
18218;DHT22;9234;49.344;11.120;2022-11-06T15:17:36;9.00;99.90
18218;DHT22;9234;49.344;11.120;2022-11-06T15:20:19;8.90;99.90
18218;DHT22;9234;49.344;11.120;2022-11-06T15:23:18;8.90;99.90
18218;DHT22;9234;49.344;11.120;2022-11-06T15:25:55;8.80;99.90
18218;DHT22;9234;49.344;11.120;2022-11-06T15:28:37;8.70;99.90
18218;DHT22;9234;49.344;11.120;2022-11-06T15:31:13;8.60;99.90
18218;DHT22;9234;49.344;11.120;2022-11-06T15:33:56;8.50;99.90
18218;DHT22;9234;49.344;11.120;2022-11-06T15:36:27;8.40;99.90
18218;DHT22;9234;49.344;11.120;2022-11-06T15:38:59;8.30;99.90
18218;DHT22;9234;49.344;11.120;2022-11-06T15:41:27;8.20;99.90
18218;DHT22;9234;49.344;11.120;2022-11-06T15:43:56;8.10;99.90
18218;DHT22;9234;49.344;11.120;2022-11-06T15:46:27;8.00;99.90
18218;DHT22;9234;49.344;11.120;2022-11-06T15:49:07;7.90;99.90
18218;DHT22;9234;49.344;11.120;2022-11-06T15:51:53;7.90;99.90
18218;DHT22;9234;49.344;11.120;2022-11-06T15:54:30;7.80;99.90
18218;DHT22;9234;49.344;11.120;2022-11-06T15:57:06;7.60;99.90
18218;DHT22;9234;49.344;11.120;2022-11-06T15:59:41;7.60;99.90
18218;DHT22;9234;49.344;11.120;2022-11-06T16:02:15;7.50;99.90
18218;DHT22;9234;49.344;11.120;2022-11-06T16:04:46;7.40;99.90
18218;DHT22;9234;49.344;11.120;2022-11-06T16:07:16;7.30;99.90
18218;DHT22;9234;49.344;11.120;2022-11-06T16:09:45;7.30;99.90
18218;DHT22;9234;49.344;11.120;2022-11-06T16:12:16;7.20;99.90
18218;DHT22;9234;49.344;11.120;2022-11-06T16:14:45;7.20;99.90
18218;DHT22;9234;49.344;11.120;2022-11-06T16:17:20;7.10;99.90
18218;DHT22;9234;49.344;11.120;2022-11-06T16:19:53;7.00;99.90
18218;DHT22;9234;49.344;11.120;2022-11-06T16:22:28;6.90;99.90
18218;DHT22;9234;49.344;11.120;2022-11-06T16:25:00;6.90;99.90
18218;DHT22;9234;49.344;11.120;2022-11-06T16:27:32;6.80;99.90
18218;DHT22;9234;49.344;11.120;2022-11-06T16:30:03;6.80;99.90
18218;DHT22;9234;49.344;11.120;2022-11-06T16:32:38;6.80;99.90
18218;DHT22;9234;49.344;11.120;2022-11-06T16:35:28;6.70;99.90
18218;DHT22;9234;49.344;11.120;2022-11-06T16:41:11;6.60;99.90
18218;DHT22;9234;49.344;11.120;2022-11-06T16:44:23;6.50;99.90
18218;DHT22;9234;49.344;11.120;2022-11-06T16:47:14;6.50;99.90